sensor_id;sensor_type;location;lat;lon;timestamp;P1;durP1;ratioP1;P2;durP2;ratioP2
31660;SDS011;18267;52.234;7.444;2022-07-06T00:00:38;3.08;;;0.77;;
31660;SDS011;18267;52.234;7.444;2022-07-06T00:03:04;3.83;;;0.75;;
31660;SDS011;18267;52.234;7.444;2022-07-06T00:05:30;4.28;;;0.90;;
31660;SDS011;18267;52.234;7.444;2022-07-06T00:07:55;2.40;;;0.85;;
31660;SDS011;18267;52.234;7.444;2022-07-06T00:10:21;2.75;;;0.75;;
31660;SDS011;18267;52.234;7.444;2022-07-06T00:12:46;1.77;;;0.95;;
31660;SDS011;18267;52.234;7.444;2022-07-06T00:15:12;1.65;;;0.80;;
31660;SDS011;18267;52.234;7.444;2022-07-06T00:17:37;2.90;;;0.95;;
31660;SDS011;18267;52.234;7.444;2022-07-06T00:20:03;3.38;;;1.20;;
31660;SDS011;18267;52.234;7.444;2022-07-06T00:22:29;1.13;;;0.80;;
31660;SDS011;18267;52.234;7.444;2022-07-06T00:24:54;2.08;;;1.00;;
31660;SDS011;18267;52.234;7.444;2022-07-06T00:27:20;4.18;;;0.75;;
31660;SDS011;18267;52.234;7.444;2022-07-06T00:29:45;3.35;;;1.10;;
31660;SDS011;18267;52.234;7.444;2022-07-06T00:32:11;1.80;;;1.10;;
31660;SDS011;18267;52.234;7.444;2022-07-06T00:34:37;2.63;;;1.00;;
31660;SDS011;18267;52.234;7.444;2022-07-06T00:37:04;1.45;;;0.93;;
31660;SDS011;18267;52.234;7.444;2022-07-06T00:39:31;1.00;;;0.88;;
31660;SDS011;18267;52.234;7.444;2022-07-06T00:41:57;3.53;;;1.00;;
31660;SDS011;18267;52.234;7.444;2022-07-06T00:44:23;2.60;;;1.02;;
31660;SDS011;18267;52.234;7.444;2022-07-06T00:46:48;5.18;;;1.55;;
31660;SDS011;18267;52.234;7.444;2022-07-06T00:49:14;1.13;;;0.80;;
31660;SDS011;18267;52.234;7.444;2022-07-06T00:51:58;2.92;;;0.95;;
31660;SDS011;18267;52.234;7.444;2022-07-06T00:54:25;1.42;;;1.20;;
31660;SDS011;18267;52.234;7.444;2022-07-06T00:56:51;3.80;;;1.50;;
31660;SDS011;18267;52.234;7.444;2022-07-06T00:59:17;4.32;;;1.25;;
31660;SDS011;18267;52.234;7.444;2022-07-06T01:01:43;2.38;;;1.13;;
31660;SDS011;18267;52.234;7.444;2022-07-06T01:04:09;3.80;;;1.17;;
31660;SDS011;18267;52.234;7.444;2022-07-06T01:06:34;3.40;;;1.30;;
31660;SDS011;18267;52.234;7.444;2022-07-06T01:09:00;2.70;;;0.90;;
31660;SDS011;18267;52.234;7.444;2022-07-06T01:11:26;3.92;;;1.42;;
31660;SDS011;18267;52.234;7.444;2022-07-06T01:13:52;2.60;;;1.30;;
31660;SDS011;18267;52.234;7.444;2022-07-06T01:16:19;3.97;;;1.35;;
31660;SDS011;18267;52.234;7.444;2022-07-06T01:18:45;4.53;;;1.50;;
31660;SDS011;18267;52.234;7.444;2022-07-06T01:21:11;2.40;;;1.20;;
31660;SDS011;18267;52.234;7.444;2022-07-06T01:23:39;3.08;;;1.20;;
31660;SDS011;18267;52.234;7.444;2022-07-06T01:26:12;4.05;;;1.30;;
31660;SDS011;18267;52.234;7.444;2022-07-06T01:28:39;2.65;;;1.42;;
31660;SDS011;18267;52.234;7.444;2022-07-06T01:31:05;2.78;;;1.20;;
31660;SDS011;18267;52.234;7.444;2022-07-06T01:33:38;2.08;;;1.30;;
31660;SDS011;18267;52.234;7.444;2022-07-06T01:36:03;1.10;;;1.00;;
31660;SDS011;18267;52.234;7.444;2022-07-06T01:38:29;1.80;;;0.95;;
31660;SDS011;18267;52.234;7.444;2022-07-06T01:40:55;2.97;;;1.17;;
31660;SDS011;18267;52.234;7.444;2022-07-06T01:43:20;2.08;;;1.13;;
31660;SDS011;18267;52.234;7.444;2022-07-06T01:45:46;1.52;;;1.30;;
31660;SDS011;18267;52.234;7.444;2022-07-06T01:48:11;2.35;;;1.45;;
31660;SDS011;18267;52.234;7.444;2022-07-06T01:50:37;1.73;;;1.23;;
31660;SDS011;18267;52.234;7.444;2022-07-06T01:53:02;3.28;;;1.83;;
31660;SDS011;18267;52.234;7.444;2022-07-06T01:55:28;4.50;;;0.90;;
31660;SDS011;18267;52.234;7.444;2022-07-06T01:57:54;2.08;;;1.25;;
31660;SDS011;18267;52.234;7.444;2022-07-06T02:00:19;13.20;;;1.63;;
31660;SDS011;18267;52.234;7.444;2022-07-06T02:02:45;3.08;;;1.50;;
31660;SDS011;18267;52.234;7.444;2022-07-06T02:05:10;1.95;;;1.08;;
31660;SDS011;18267;52.234;7.444;2022-07-06T02:07:36;3.17;;;1.42;;
31660;SDS011;18267;52.234;7.444;2022-07-06T02:10:01;3.00;;;1.60;;
31660;SDS011;18267;52.234;7.444;2022-07-06T02:12:27;3.20;;;1.38;;
31660;SDS011;18267;52.234;7.444;2022-07-06T02:14:52;1.60;;;1.15;;
31660;SDS011;18267;52.234;7.444;2022-07-06T02:17:18;2.38;;;1.08;;
31660;SDS011;18267;52.234;7.444;2022-07-06T02:19:43;3.13;;;1.13;;
31660;SDS011;18267;52.234;7.444;2022-07-06T02:22:09;2.35;;;1.10;;
31660;SDS011;18267;52.234;7.444;2022-07-06T02:24:34;1.85;;;1.60;;
31660;SDS011;18267;52.234;7.444;2022-07-06T02:27:00;2.85;;;1.35;;
31660;SDS011;18267;52.234;7.444;2022-07-06T02:29:25;9.98;;;1.83;;
31660;SDS011;18267;52.234;7.444;2022-07-06T02:31:51;7.35;;;1.60;;
31660;SDS011;18267;52.234;7.444;2022-07-06T02:34:16;2.42;;;1.23;;
31660;SDS011;18267;52.234;7.444;2022-07-06T02:36:42;1.67;;;1.25;;
31660;SDS011;18267;52.234;7.444;2022-07-06T02:39:07;5.07;;;1.50;;
31660;SDS011;18267;52.234;7.444;2022-07-06T02:41:33;3.58;;;1.77;;
31660;SDS011;18267;52.234;7.444;2022-07-06T02:43:58;3.70;;;1.65;;
31660;SDS011;18267;52.234;7.444;2022-07-06T02:46:24;4.40;;;1.70;;
31660;SDS011;18267;52.234;7.444;2022-07-06T02:48:50;8.02;;;1.88;;
31660;SDS011;18267;52.234;7.444;2022-07-06T02:51:15;3.63;;;1.65;;
31660;SDS011;18267;52.234;7.444;2022-07-06T02:53:41;2.97;;;1.77;;
31660;SDS011;18267;52.234;7.444;2022-07-06T02:56:06;13.23;;;1.77;;
31660;SDS011;18267;52.234;7.444;2022-07-06T02:58:32;4.18;;;2.08;;
31660;SDS011;18267;52.234;7.444;2022-07-06T03:00:57;3.30;;;2.17;;
31660;SDS011;18267;52.234;7.444;2022-07-06T03:03:23;3.58;;;1.92;;
31660;SDS011;18267;52.234;7.444;2022-07-06T03:05:48;7.85;;;1.60;;
31660;SDS011;18267;52.234;7.444;2022-07-06T03:08:14;7.03;;;1.95;;
31660;SDS011;18267;52.234;7.444;2022-07-06T03:10:40;2.47;;;1.50;;
31660;SDS011;18267;52.234;7.444;2022-07-06T03:13:06;2.78;;;1.58;;
31660;SDS011;18267;52.234;7.444;2022-07-06T03:15:31;3.45;;;1.75;;
31660;SDS011;18267;52.234;7.444;2022-07-06T03:17:57;2.60;;;2.00;;
31660;SDS011;18267;52.234;7.444;2022-07-06T03:20:22;1.70;;;1.60;;
31660;SDS011;18267;52.234;7.444;2022-07-06T03:22:48;9.48;;;1.80;;
31660;SDS011;18267;52.234;7.444;2022-07-06T03:25:13;6.30;;;2.38;;
31660;SDS011;18267;52.234;7.444;2022-07-06T03:27:39;3.83;;;2.00;;
31660;SDS011;18267;52.234;7.444;2022-07-06T03:30:04;3.63;;;1.92;;
31660;SDS011;18267;52.234;7.444;2022-07-06T03:32:30;2.17;;;1.85;;
31660;SDS011;18267;52.234;7.444;2022-07-06T03:34:56;4.30;;;1.98;;
31660;SDS011;18267;52.234;7.444;2022-07-06T03:37:22;4.15;;;2.03;;
31660;SDS011;18267;52.234;7.444;2022-07-06T03:39:47;3.83;;;2.13;;
31660;SDS011;18267;52.234;7.444;2022-07-06T03:42:14;3.95;;;1.85;;
31660;SDS011;18267;52.234;7.444;2022-07-06T03:44:39;4.13;;;2.22;;
31660;SDS011;18267;52.234;7.444;2022-07-06T03:47:05;5.53;;;2.20;;
31660;SDS011;18267;52.234;7.444;2022-07-06T03:49:30;5.30;;;1.95;;
31660;SDS011;18267;52.234;7.444;2022-07-06T03:51:56;2.33;;;2.10;;
31660;SDS011;18267;52.234;7.444;2022-07-06T03:54:22;4.30;;;2.10;;
31660;SDS011;18267;52.234;7.444;2022-07-06T03:56:47;2.95;;;1.70;;
31660;SDS011;18267;52.234;7.444;2022-07-06T03:59:13;2.95;;;2.08;;
31660;SDS011;18267;52.234;7.444;2022-07-06T04:01:39;2.28;;;1.80;;
31660;SDS011;18267;52.234;7.444;2022-07-06T04:04:04;5.93;;;2.03;;
31660;SDS011;18267;52.234;7.444;2022-07-06T04:06:30;2.25;;;1.80;;
31660;SDS011;18267;52.234;7.444;2022-07-06T04:08:56;2.58;;;1.80;;
31660;SDS011;18267;52.234;7.444;2022-07-06T04:11:21;2.60;;;2.00;;
31660;SDS011;18267;52.234;7.444;2022-07-06T04:13:47;2.20;;;1.60;;
31660;SDS011;18267;52.234;7.444;2022-07-06T04:16:12;4.18;;;1.50;;
31660;SDS011;18267;52.234;7.444;2022-07-06T04:18:38;8.77;;;1.83;;
31660;SDS011;18267;52.234;7.444;2022-07-06T04:21:03;3.60;;;1.65;;
31660;SDS011;18267;52.234;7.444;2022-07-06T04:23:29;2.15;;;1.58;;
31660;SDS011;18267;52.234;7.444;2022-07-06T04:25:55;2.05;;;1.67;;
31660;SDS011;18267;52.234;7.444;2022-07-06T04:28:21;3.75;;;1.38;;
31660;SDS011;18267;52.234;7.444;2022-07-06T04:30:46;3.22;;;1.70;;
31660;SDS011;18267;52.234;7.444;2022-07-06T04:33:12;3.70;;;2.25;;
31660;SDS011;18267;52.234;7.444;2022-07-06T04:35:38;2.42;;;1.85;;
31660;SDS011;18267;52.234;7.444;2022-07-06T04:38:03;4.25;;;2.38;;
31660;SDS011;18267;52.234;7.444;2022-07-06T04:40:30;4.53;;;1.80;;
31660;SDS011;18267;52.234;7.444;2022-07-06T04:42:55;7.63;;;2.13;;
31660;SDS011;18267;52.234;7.444;2022-07-06T04:45:21;4.32;;;1.90;;
31660;SDS011;18267;52.234;7.444;2022-07-06T04:47:46;3.65;;;2.00;;
31660;SDS011;18267;52.234;7.444;2022-07-06T04:50:12;2.53;;;1.48;;
31660;SDS011;18267;52.234;7.444;2022-07-06T04:52:38;2.25;;;1.60;;
31660;SDS011;18267;52.234;7.444;2022-07-06T04:55:03;4.00;;;2.22;;
31660;SDS011;18267;52.234;7.444;2022-07-06T04:57:30;2.45;;;1.67;;
31660;SDS011;18267;52.234;7.444;2022-07-06T04:59:56;5.38;;;1.63;;
31660;SDS011;18267;52.234;7.444;2022-07-06T05:02:22;1.75;;;1.50;;
31660;SDS011;18267;52.234;7.444;2022-07-06T05:04:48;2.92;;;1.67;;
31660;SDS011;18267;52.234;7.444;2022-07-06T05:07:13;6.68;;;1.50;;
31660;SDS011;18267;52.234;7.444;2022-07-06T05:09:39;3.30;;;1.73;;
31660;SDS011;18267;52.234;7.444;2022-07-06T05:12:05;3.08;;;1.50;;
31660;SDS011;18267;52.234;7.444;2022-07-06T05:14:31;8.00;;;2.00;;
31660;SDS011;18267;52.234;7.444;2022-07-06T05:16:57;6.65;;;1.58;;
31660;SDS011;18267;52.234;7.444;2022-07-06T05:19:23;4.53;;;1.90;;
31660;SDS011;18267;52.234;7.444;2022-07-06T05:21:48;3.75;;;1.50;;
31660;SDS011;18267;52.234;7.444;2022-07-06T05:24:14;3.80;;;1.50;;
31660;SDS011;18267;52.234;7.444;2022-07-06T05:26:40;2.75;;;1.50;;
31660;SDS011;18267;52.234;7.444;2022-07-06T05:29:06;5.30;;;1.73;;
31660;SDS011;18267;52.234;7.444;2022-07-06T05:31:32;8.00;;;1.90;;
31660;SDS011;18267;52.234;7.444;2022-07-06T05:33:57;3.47;;;1.88;;
31660;SDS011;18267;52.234;7.444;2022-07-06T05:36:23;4.57;;;1.65;;
31660;SDS011;18267;52.234;7.444;2022-07-06T05:38:48;2.75;;;1.60;;
31660;SDS011;18267;52.234;7.444;2022-07-06T05:41:14;1.83;;;1.60;;
31660;SDS011;18267;52.234;7.444;2022-07-06T05:43:39;3.55;;;1.70;;
31660;SDS011;18267;52.234;7.444;2022-07-06T05:46:05;4.95;;;2.15;;
31660;SDS011;18267;52.234;7.444;2022-07-06T05:48:31;4.30;;;1.30;;
31660;SDS011;18267;52.234;7.444;2022-07-06T05:51:15;2.92;;;1.60;;
31660;SDS011;18267;52.234;7.444;2022-07-06T05:53:40;3.45;;;2.20;;
31660;SDS011;18267;52.234;7.444;2022-07-06T05:56:06;3.53;;;1.52;;
31660;SDS011;18267;52.234;7.444;2022-07-06T05:58:32;3.00;;;1.45;;
31660;SDS011;18267;52.234;7.444;2022-07-06T06:00:57;14.40;;;1.92;;
31660;SDS011;18267;52.234;7.444;2022-07-06T06:03:23;4.57;;;1.60;;
31660;SDS011;18267;52.234;7.444;2022-07-06T06:05:49;4.80;;;1.38;;
31660;SDS011;18267;52.234;7.444;2022-07-06T06:08:14;5.10;;;1.45;;
31660;SDS011;18267;52.234;7.444;2022-07-06T06:10:40;6.47;;;1.40;;
31660;SDS011;18267;52.234;7.444;2022-07-06T06:13:06;2.30;;;1.10;;
31660;SDS011;18267;52.234;7.444;2022-07-06T06:15:31;3.25;;;1.75;;
31660;SDS011;18267;52.234;7.444;2022-07-06T06:17:57;4.95;;;1.33;;
31660;SDS011;18267;52.234;7.444;2022-07-06T06:20:23;12.80;;;1.50;;
31660;SDS011;18267;52.234;7.444;2022-07-06T06:22:49;4.32;;;1.17;;
31660;SDS011;18267;52.234;7.444;2022-07-06T06:25:26;3.72;;;1.08;;
31660;SDS011;18267;52.234;7.444;2022-07-06T06:27:53;5.35;;;1.10;;
31660;SDS011;18267;52.234;7.444;2022-07-06T06:30:18;3.33;;;1.17;;
31660;SDS011;18267;52.234;7.444;2022-07-06T06:32:44;5.97;;;1.65;;
31660;SDS011;18267;52.234;7.444;2022-07-06T06:35:09;2.95;;;0.90;;
31660;SDS011;18267;52.234;7.444;2022-07-06T06:37:35;3.72;;;1.08;;
31660;SDS011;18267;52.234;7.444;2022-07-06T06:40:01;2.95;;;1.10;;
31660;SDS011;18267;52.234;7.444;2022-07-06T06:42:28;8.85;;;1.25;;
31660;SDS011;18267;52.234;7.444;2022-07-06T06:44:53;4.30;;;1.10;;
31660;SDS011;18267;52.234;7.444;2022-07-06T06:47:19;5.03;;;1.10;;
31660;SDS011;18267;52.234;7.444;2022-07-06T06:49:45;7.03;;;0.93;;
31660;SDS011;18267;52.234;7.444;2022-07-06T06:52:11;4.97;;;0.93;;
31660;SDS011;18267;52.234;7.444;2022-07-06T06:54:36;2.17;;;1.30;;
31660;SDS011;18267;52.234;7.444;2022-07-06T06:57:02;2.65;;;0.82;;
31660;SDS011;18267;52.234;7.444;2022-07-06T06:59:28;6.22;;;0.93;;
31660;SDS011;18267;52.234;7.444;2022-07-06T07:01:53;2.78;;;0.85;;
31660;SDS011;18267;52.234;7.444;2022-07-06T07:04:19;1.52;;;0.82;;
31660;SDS011;18267;52.234;7.444;2022-07-06T07:06:44;3.72;;;0.80;;
31660;SDS011;18267;52.234;7.444;2022-07-06T07:09:10;5.03;;;0.70;;
31660;SDS011;18267;52.234;7.444;2022-07-06T07:11:35;3.45;;;0.60;;
31660;SDS011;18267;52.234;7.444;2022-07-06T07:14:01;1.92;;;1.35;;
31660;SDS011;18267;52.234;7.444;2022-07-06T07:16:27;8.50;;;0.63;;
31660;SDS011;18267;52.234;7.444;2022-07-06T07:18:53;4.25;;;0.80;;
31660;SDS011;18267;52.234;7.444;2022-07-06T07:21:18;5.45;;;0.70;;
31660;SDS011;18267;52.234;7.444;2022-07-06T07:23:44;2.67;;;0.65;;
31660;SDS011;18267;52.234;7.444;2022-07-06T07:26:09;2.67;;;0.70;;
31660;SDS011;18267;52.234;7.444;2022-07-06T07:28:35;1.90;;;0.50;;
31660;SDS011;18267;52.234;7.444;2022-07-06T07:31:00;3.45;;;0.70;;
31660;SDS011;18267;52.234;7.444;2022-07-06T07:33:26;2.88;;;0.45;;
31660;SDS011;18267;52.234;7.444;2022-07-06T07:35:52;3.20;;;0.43;;
31660;SDS011;18267;52.234;7.444;2022-07-06T07:38:17;1.55;;;0.50;;
31660;SDS011;18267;52.234;7.444;2022-07-06T07:40:43;1.45;;;0.50;;
31660;SDS011;18267;52.234;7.444;2022-07-06T07:43:08;2.72;;;0.15;;
31660;SDS011;18267;52.234;7.444;2022-07-06T07:45:34;7.43;;;0.60;;
31660;SDS011;18267;52.234;7.444;2022-07-06T07:47:59;1.48;;;0.35;;
31660;SDS011;18267;52.234;7.444;2022-07-06T07:50:25;6.22;;;0.52;;
31660;SDS011;18267;52.234;7.444;2022-07-06T07:52:51;7.45;;;0.57;;
31660;SDS011;18267;52.234;7.444;2022-07-06T07:55:17;0.93;;;0.38;;
31660;SDS011;18267;52.234;7.444;2022-07-06T07:57:43;3.78;;;0.38;;
31660;SDS011;18267;52.234;7.444;2022-07-06T08:00:08;1.55;;;0.20;;
31660;SDS011;18267;52.234;7.444;2022-07-06T08:02:35;2.63;;;0.47;;
31660;SDS011;18267;52.234;7.444;2022-07-06T08:05:00;2.28;;;0.85;;
31660;SDS011;18267;52.234;7.444;2022-07-06T08:07:26;2.92;;;0.93;;
31660;SDS011;18267;52.234;7.444;2022-07-06T08:09:52;2.40;;;0.30;;
31660;SDS011;18267;52.234;7.444;2022-07-06T08:12:17;2.00;;;0.40;;
31660;SDS011;18267;52.234;7.444;2022-07-06T08:14:43;0.38;;;0.22;;
31660;SDS011;18267;52.234;7.444;2022-07-06T08:17:08;0.47;;;0.15;;
31660;SDS011;18267;52.234;7.444;2022-07-06T08:19:34;1.75;;;0.40;;
31660;SDS011;18267;52.234;7.444;2022-07-06T08:21:59;8.88;;;0.93;;
31660;SDS011;18267;52.234;7.444;2022-07-06T08:24:25;2.58;;;0.40;;
31660;SDS011;18267;52.234;7.444;2022-07-06T08:26:50;2.08;;;0.30;;
31660;SDS011;18267;52.234;7.444;2022-07-06T08:29:16;3.78;;;0.43;;
31660;SDS011;18267;52.234;7.444;2022-07-06T08:31:41;2.85;;;0.50;;
31660;SDS011;18267;52.234;7.444;2022-07-06T08:34:07;4.25;;;0.30;;
31660;SDS011;18267;52.234;7.444;2022-07-06T08:36:32;1.73;;;0.30;;
31660;SDS011;18267;52.234;7.444;2022-07-06T08:38:58;0.45;;;0.25;;
31660;SDS011;18267;52.234;7.444;2022-07-06T08:41:24;6.60;;;0.55;;
31660;SDS011;18267;52.234;7.444;2022-07-06T08:43:53;2.50;;;0.35;;
31660;SDS011;18267;52.234;7.444;2022-07-06T08:46:19;4.15;;;0.20;;
31660;SDS011;18267;52.234;7.444;2022-07-06T08:48:46;7.00;;;0.50;;
31660;SDS011;18267;52.234;7.444;2022-07-06T08:51:13;1.60;;;0.30;;
31660;SDS011;18267;52.234;7.444;2022-07-06T08:53:42;4.32;;;0.40;;
31660;SDS011;18267;52.234;7.444;2022-07-06T08:56:09;1.15;;;0.20;;
31660;SDS011;18267;52.234;7.444;2022-07-06T08:58:35;1.33;;;0.30;;
31660;SDS011;18267;52.234;7.444;2022-07-06T09:01:01;0.47;;;0.20;;
31660;SDS011;18267;52.234;7.444;2022-07-06T09:03:27;1.58;;;0.30;;
31660;SDS011;18267;52.234;7.444;2022-07-06T09:05:53;0.63;;;0.20;;
31660;SDS011;18267;52.234;7.444;2022-07-06T09:08:24;0.50;;;0.10;;
31660;SDS011;18267;52.234;7.444;2022-07-06T09:10:52;3.25;;;0.20;;
31660;SDS011;18267;52.234;7.444;2022-07-06T09:13:18;1.58;;;0.20;;
31660;SDS011;18267;52.234;7.444;2022-07-06T09:15:44;0.85;;;0.20;;
31660;SDS011;18267;52.234;7.444;2022-07-06T09:18:09;0.75;;;0.30;;
31660;SDS011;18267;52.234;7.444;2022-07-06T09:20:35;2.40;;;0.40;;
31660;SDS011;18267;52.234;7.444;2022-07-06T09:23:02;1.63;;;0.20;;
31660;SDS011;18267;52.234;7.444;2022-07-06T09:25:34;0.75;;;0.30;;
31660;SDS011;18267;52.234;7.444;2022-07-06T09:28:00;2.15;;;0.30;;
31660;SDS011;18267;52.234;7.444;2022-07-06T09:30:27;0.80;;;0.10;;
31660;SDS011;18267;52.234;7.444;2022-07-06T09:32:55;3.33;;;0.20;;
31660;SDS011;18267;52.234;7.444;2022-07-06T09:35:30;3.70;;;0.40;;
31660;SDS011;18267;52.234;7.444;2022-07-06T09:38:08;1.02;;;0.30;;
31660;SDS011;18267;52.234;7.444;2022-07-06T09:40:39;0.40;;;0.30;;
31660;SDS011;18267;52.234;7.444;2022-07-06T09:43:28;1.00;;;0.20;;
31660;SDS011;18267;52.234;7.444;2022-07-06T09:45:55;4.20;;;0.30;;
31660;SDS011;18267;52.234;7.444;2022-07-06T09:48:22;2.30;;;0.40;;
31660;SDS011;18267;52.234;7.444;2022-07-06T09:50:55;1.20;;;0.10;;
31660;SDS011;18267;52.234;7.444;2022-07-06T09:53:22;2.00;;;0.20;;
31660;SDS011;18267;52.234;7.444;2022-07-06T09:55:51;3.05;;;0.30;;
31660;SDS011;18267;52.234;7.444;2022-07-06T09:58:19;1.08;;;0.20;;
31660;SDS011;18267;52.234;7.444;2022-07-06T10:00:46;3.03;;;0.30;;
31660;SDS011;18267;52.234;7.444;2022-07-06T10:03:12;1.85;;;0.40;;
31660;SDS011;18267;52.234;7.444;2022-07-06T10:05:40;2.70;;;0.40;;
31660;SDS011;18267;52.234;7.444;2022-07-06T10:08:07;7.78;;;0.50;;
31660;SDS011;18267;52.234;7.444;2022-07-06T10:10:37;0.52;;;0.20;;
31660;SDS011;18267;52.234;7.444;2022-07-06T10:13:04;0.45;;;0.20;;
31660;SDS011;18267;52.234;7.444;2022-07-06T10:15:34;5.22;;;0.20;;
31660;SDS011;18267;52.234;7.444;2022-07-06T10:18:03;0.75;;;0.10;;
31660;SDS011;18267;52.234;7.444;2022-07-06T10:20:32;1.05;;;0.30;;
31660;SDS011;18267;52.234;7.444;2022-07-06T10:23:02;0.40;;;0.40;;
31660;SDS011;18267;52.234;7.444;2022-07-06T10:25:28;2.03;;;0.30;;
31660;SDS011;18267;52.234;7.444;2022-07-06T10:27:54;2.20;;;0.20;;
31660;SDS011;18267;52.234;7.444;2022-07-06T10:30:22;0.80;;;0.13;;
31660;SDS011;18267;52.234;7.444;2022-07-06T10:32:49;4.20;;;0.28;;
31660;SDS011;18267;52.234;7.444;2022-07-06T10:35:16;1.95;;;0.20;;
31660;SDS011;18267;52.234;7.444;2022-07-06T10:37:43;0.47;;;0.20;;
31660;SDS011;18267;52.234;7.444;2022-07-06T10:40:09;1.05;;;0.20;;
31660;SDS011;18267;52.234;7.444;2022-07-06T10:42:57;1.38;;;0.43;;
31660;SDS011;18267;52.234;7.444;2022-07-06T10:50:37;4.05;;;0.22;;
31660;SDS011;18267;52.234;7.444;2022-07-06T10:53:02;0.85;;;0.13;;
31660;SDS011;18267;52.234;7.444;2022-07-06T10:55:36;0.30;;;0.20;;
31660;SDS011;18267;52.234;7.444;2022-07-06T10:58:03;0.40;;;0.17;;
31660;SDS011;18267;52.234;7.444;2022-07-06T11:03:38;0.30;;;0.10;;
31660;SDS011;18267;52.234;7.444;2022-07-06T11:06:17;0.65;;;0.15;;
31660;SDS011;18267;52.234;7.444;2022-07-06T11:16:15;2.33;;;0.50;;
31660;SDS011;18267;52.234;7.444;2022-07-06T11:18:45;3.30;;;0.30;;
31660;SDS011;18267;52.234;7.444;2022-07-06T11:21:23;0.90;;;0.20;;
31660;SDS011;18267;52.234;7.444;2022-07-06T11:24:01;1.08;;;0.30;;
31660;SDS011;18267;52.234;7.444;2022-07-06T11:26:28;0.52;;;0.20;;
31660;SDS011;18267;52.234;7.444;2022-07-06T11:28:55;0.70;;;0.10;;
31660;SDS011;18267;52.234;7.444;2022-07-06T11:31:24;1.17;;;0.30;;
31660;SDS011;18267;52.234;7.444;2022-07-06T11:33:50;1.55;;;0.50;;
31660;SDS011;18267;52.234;7.444;2022-07-06T11:36:19;1.40;;;0.20;;
31660;SDS011;18267;52.234;7.444;2022-07-06T11:38:46;0.43;;;0.13;;
31660;SDS011;18267;52.234;7.444;2022-07-06T11:41:13;1.55;;;0.20;;
31660;SDS011;18267;52.234;7.444;2022-07-06T11:43:43;1.98;;;0.40;;
31660;SDS011;18267;52.234;7.444;2022-07-06T11:49:05;0.22;;;0.10;;
31660;SDS011;18267;52.234;7.444;2022-07-06T11:51:33;0.25;;;0.05;;
31660;SDS011;18267;52.234;7.444;2022-07-06T11:54:16;0.65;;;0.13;;
31660;SDS011;18267;52.234;7.444;2022-07-06T11:56:47;1.27;;;0.20;;
31660;SDS011;18267;52.234;7.444;2022-07-06T11:59:25;0.85;;;0.20;;
31660;SDS011;18267;52.234;7.444;2022-07-06T12:04:27;1.45;;;0.10;;
31660;SDS011;18267;52.234;7.444;2022-07-06T12:06:54;0.40;;;0.20;;
31660;SDS011;18267;52.234;7.444;2022-07-06T12:09:19;4.18;;;0.38;;
31660;SDS011;18267;52.234;7.444;2022-07-06T12:11:46;1.63;;;0.30;;
31660;SDS011;18267;52.234;7.444;2022-07-06T12:14:13;1.48;;;0.20;;
31660;SDS011;18267;52.234;7.444;2022-07-06T12:16:41;1.38;;;0.55;;
31660;SDS011;18267;52.234;7.444;2022-07-06T12:19:06;0.20;;;0.20;;
31660;SDS011;18267;52.234;7.444;2022-07-06T12:21:45;1.50;;;0.17;;
31660;SDS011;18267;52.234;7.444;2022-07-06T12:24:24;1.27;;;0.15;;
31660;SDS011;18267;52.234;7.444;2022-07-06T12:26:56;3.05;;;0.28;;
31660;SDS011;18267;52.234;7.444;2022-07-06T12:29:22;1.15;;;0.13;;
31660;SDS011;18267;52.234;7.444;2022-07-06T12:39:17;1.27;;;0.50;;
31660;SDS011;18267;52.234;7.444;2022-07-06T12:41:46;0.80;;;0.30;;
31660;SDS011;18267;52.234;7.444;2022-07-06T12:44:14;0.28;;;0.10;;
31660;SDS011;18267;52.234;7.444;2022-07-06T12:46:45;0.28;;;0.20;;
31660;SDS011;18267;52.234;7.444;2022-07-06T12:49:20;2.45;;;0.28;;
31660;SDS011;18267;52.234;7.444;2022-07-06T12:52:30;1.65;;;0.28;;
31660;SDS011;18267;52.234;7.444;2022-07-06T12:54:47;0.80;;;0.15;;
31660;SDS011;18267;52.234;7.444;2022-07-06T12:57:15;0.25;;;0.10;;
31660;SDS011;18267;52.234;7.444;2022-07-06T13:00:04;0.32;;;0.10;;
31660;SDS011;18267;52.234;7.444;2022-07-06T13:02:34;0.77;;;0.20;;
31660;SDS011;18267;52.234;7.444;2022-07-06T13:05:05;0.17;;;0.10;;
31660;SDS011;18267;52.234;7.444;2022-07-06T13:07:34;1.25;;;0.20;;
31660;SDS011;18267;52.234;7.444;2022-07-06T13:10:01;3.72;;;0.20;;
31660;SDS011;18267;52.234;7.444;2022-07-06T13:12:29;2.83;;;0.20;;
31660;SDS011;18267;52.234;7.444;2022-07-06T13:14:55;0.40;;;0.25;;
31660;SDS011;18267;52.234;7.444;2022-07-06T13:17:20;1.55;;;0.20;;
31660;SDS011;18267;52.234;7.444;2022-07-06T13:19:46;2.78;;;0.20;;
31660;SDS011;18267;52.234;7.444;2022-07-06T13:22:12;2.08;;;0.20;;
31660;SDS011;18267;52.234;7.444;2022-07-06T13:24:37;0.57;;;0.10;;
31660;SDS011;18267;52.234;7.444;2022-07-06T13:27:03;2.70;;;0.30;;
31660;SDS011;18267;52.234;7.444;2022-07-06T13:29:29;2.45;;;0.10;;
31660;SDS011;18267;52.234;7.444;2022-07-06T13:31:54;0.60;;;0.35;;
31660;SDS011;18267;52.234;7.444;2022-07-06T13:34:20;1.35;;;0.15;;
31660;SDS011;18267;52.234;7.444;2022-07-06T13:36:45;1.08;;;0.20;;
31660;SDS011;18267;52.234;7.444;2022-07-06T13:39:11;0.20;;;0.10;;
31660;SDS011;18267;52.234;7.444;2022-07-06T13:41:37;2.40;;;0.30;;
31660;SDS011;18267;52.234;7.444;2022-07-06T13:44:03;2.92;;;0.30;;
31660;SDS011;18267;52.234;7.444;2022-07-06T13:46:29;3.03;;;0.20;;
31660;SDS011;18267;52.234;7.444;2022-07-06T13:48:55;1.13;;;0.20;;
31660;SDS011;18267;52.234;7.444;2022-07-06T13:51:22;0.75;;;0.30;;
31660;SDS011;18267;52.234;7.444;2022-07-06T13:53:48;2.30;;;0.43;;
31660;SDS011;18267;52.234;7.444;2022-07-06T13:56:14;0.73;;;0.10;;
31660;SDS011;18267;52.234;7.444;2022-07-06T13:58:41;1.10;;;0.20;;
31660;SDS011;18267;52.234;7.444;2022-07-06T14:01:06;2.90;;;0.22;;
31660;SDS011;18267;52.234;7.444;2022-07-06T14:03:32;0.40;;;0.20;;
31660;SDS011;18267;52.234;7.444;2022-07-06T14:05:58;0.82;;;0.30;;
31660;SDS011;18267;52.234;7.444;2022-07-06T14:08:25;2.33;;;0.20;;
31660;SDS011;18267;52.234;7.444;2022-07-06T14:10:52;1.13;;;0.20;;
31660;SDS011;18267;52.234;7.444;2022-07-06T14:13:18;4.07;;;0.30;;
31660;SDS011;18267;52.234;7.444;2022-07-06T14:15:44;2.83;;;0.38;;
31660;SDS011;18267;52.234;7.444;2022-07-06T14:18:10;2.72;;;0.10;;
31660;SDS011;18267;52.234;7.444;2022-07-06T14:20:35;0.57;;;0.22;;
31660;SDS011;18267;52.234;7.444;2022-07-06T14:23:01;2.30;;;0.38;;
31660;SDS011;18267;52.234;7.444;2022-07-06T14:25:27;4.63;;;0.20;;
31660;SDS011;18267;52.234;7.444;2022-07-06T14:27:52;3.47;;;0.28;;
31660;SDS011;18267;52.234;7.444;2022-07-06T14:30:18;1.73;;;0.30;;
31660;SDS011;18267;52.234;7.444;2022-07-06T14:32:43;4.57;;;0.30;;
31660;SDS011;18267;52.234;7.444;2022-07-06T14:35:12;2.80;;;0.30;;
31660;SDS011;18267;52.234;7.444;2022-07-06T14:37:37;0.28;;;0.20;;
31660;SDS011;18267;52.234;7.444;2022-07-06T14:40:04;1.48;;;0.13;;
31660;SDS011;18267;52.234;7.444;2022-07-06T14:42:30;1.20;;;0.20;;
31660;SDS011;18267;52.234;7.444;2022-07-06T14:44:55;0.47;;;0.20;;
31660;SDS011;18267;52.234;7.444;2022-07-06T14:47:21;1.73;;;0.32;;
31660;SDS011;18267;52.234;7.444;2022-07-06T14:49:46;0.20;;;0.20;;
31660;SDS011;18267;52.234;7.444;2022-07-06T14:52:12;0.75;;;0.20;;
31660;SDS011;18267;52.234;7.444;2022-07-06T14:54:37;1.60;;;0.17;;
31660;SDS011;18267;52.234;7.444;2022-07-06T14:57:03;1.15;;;0.20;;
31660;SDS011;18267;52.234;7.444;2022-07-06T14:59:30;3.33;;;0.30;;
31660;SDS011;18267;52.234;7.444;2022-07-06T15:01:56;5.47;;;0.30;;
31660;SDS011;18267;52.234;7.444;2022-07-06T15:04:21;0.20;;;0.20;;
31660;SDS011;18267;52.234;7.444;2022-07-06T15:06:47;2.10;;;0.28;;
31660;SDS011;18267;52.234;7.444;2022-07-06T15:09:13;0.82;;;0.40;;
31660;SDS011;18267;52.234;7.444;2022-07-06T15:11:39;1.02;;;0.10;;
31660;SDS011;18267;52.234;7.444;2022-07-06T15:14:04;3.80;;;0.38;;